Terminal Aerodrome Forecast
Issued by NWS

Home | Current Version | Previous Version | Text Only | Print | Product List | Glossary On
Versions: 1 2 3 4 5 6 7 8 9 10 11 12 13 14 15 16 17 18 19
119
FTUS43 KDVN 241130
TAFBRL
TAF
KBRL 241130Z 2412/2512 21008KT P6SM BKN100
     FM241400 21008KT P6SM VCTS BKN050CB
     FM241700 22008KT P6SM BKN100
     FM250000 27006KT P6SM SCT120 BKN200
     FM250300 32005KT 5SM BR BKN250=

USA.gov is the U.S. government's official web portal to all federal, state and local government web resources and services.